Amoret, Missouri
Current Conditions -  °F | °C
As of 9:53 PM on Wednesday 22 Oct 2014 (Local Time) from KOJC Reporting Station
Clear Clear  
Wind Chill: 61°   Ceiling: Unl
Heat Index: 61°   Visibility: 10mi
Dew Point: 53°   Wind: 9mph
Humidity: 75%   Direction: 150°SSE
Pressure: 30.11"   Gusts: NA
Location:  38.26°N, 94.59°W
Report Text: KOJC 230253Z AUTO 15008KT 10SM CLR 16/12 A3011 RMK AO2 SLP193 T01610117 51004
Loading
Personal Weather Stations






























Interactive Weather Map
Tropical Storm Tracking
New forecast layout! Learn more

10-Day Weather Forecast

Advertisements
Track Severe Weather on mobile